Hauptseite
METAR-TAF:

METAR-TAF

Flughäfen :

Yap, Mikronesien

Breite: 09-29N, Länge: 138-05E, Höhe: 28 m

Beobachtung

Neuester Wetterbericht von vor 42 Minuten, um 07:51 UTC
Wind 5 kt aus unterschiedlichen Richtungen
Temperatur 29°C
Luftfeuchtigkeit 79%
Luftdruck 1011 hPa
Sichtweite: 19.3 km
Leicht bewölkt in der Höhe von 1600 ft
Durchbrochene Bewölkung in der Höhe von 30000 ft

METAR: PTYA 210751Z VRB05KT 12SM FEW016 BKN300 29/25 A2984 RMK SLP105 T02890248

Zeit: 18:33 (08:33 UTC)

Prognose

Neuester Wetterbericht von vor 3 Stunden und 1 Minuten, um 05:32 UTC
Gültige Prognose vom 21 um 06 UTC bis 22 um 06 UTC
Wind 7 kt aus Ost
Sichtweite: 10 km
Leicht bewölkt in der Höhe von 1600 ft
Aufgelockert bewölkt in der Höhe von 5000 ft
Aufgelockert bewölkt in der Höhe von 13000 ft
Schauer in der Nähe

TAF: PTYA 210532Z 2106/2206 10007KT P6SM VCSH FEW016 SCT050 SCT130

Wetterbeobachtungen und Prognosen von mehr als 4000 Flughäfen (METAR und TAF Bericht).

Die verfügbaren Stationen werden durch gelbe und rote Markierungen auf der Karte dargestellt.

Führen Sie die Maus auf sie, um den Namen der Station zu sehen.

Darauf klicken, um die Beobachtung von Wetterbeobachtungen und Prognosen zu sehen.

Um die Karte zu ändern : klicken Sie auf den grünen Tasten mit einem schwarzen Kreuz Zum Vergrößern, auf den grünen Button mit einem Gedankenstrich zu verkleinern, oder auf die grünen Pfeile für benachbarte Karten.


METAR-TAF: